sensor_id;sensor_type;location;lat;lon;timestamp;P1;durP1;ratioP1;P2;durP2;ratioP2
55455;SDS011;63021;52.836;6.376;2024-01-30T00:01:12;19.60;;;15.15;;
55455;SDS011;63021;52.836;6.376;2024-01-30T00:03:37;23.23;;;16.55;;
55455;SDS011;63021;52.836;6.376;2024-01-30T00:06:03;20.20;;;15.63;;
55455;SDS011;63021;52.836;6.376;2024-01-30T00:08:28;22.50;;;16.25;;
55455;SDS011;63021;52.836;6.376;2024-01-30T00:10:54;25.15;;;17.23;;
55455;SDS011;63021;52.836;6.376;2024-01-30T00:13:19;22.27;;;15.85;;
55455;SDS011;63021;52.836;6.376;2024-01-30T00:15:45;27.15;;;16.90;;
55455;SDS011;63021;52.836;6.376;2024-01-30T00:18:10;26.17;;;17.23;;
55455;SDS011;63021;52.836;6.376;2024-01-30T00:20:36;25.27;;;17.92;;
55455;SDS011;63021;52.836;6.376;2024-01-30T00:23:01;20.90;;;15.77;;
55455;SDS011;63021;52.836;6.376;2024-01-30T00:25:27;25.52;;;17.45;;
55455;SDS011;63021;52.836;6.376;2024-01-30T00:27:52;21.33;;;16.30;;
55455;SDS011;63021;52.836;6.376;2024-01-30T00:30:17;20.95;;;16.08;;
55455;SDS011;63021;52.836;6.376;2024-01-30T00:32:43;22.45;;;17.83;;
55455;SDS011;63021;52.836;6.376;2024-01-30T00:35:08;21.40;;;16.08;;
55455;SDS011;63021;52.836;6.376;2024-01-30T00:37:35;19.83;;;17.00;;
55455;SDS011;63021;52.836;6.376;2024-01-30T00:40:00;22.48;;;16.50;;
55455;SDS011;63021;52.836;6.376;2024-01-30T00:42:26;19.15;;;16.35;;
55455;SDS011;63021;52.836;6.376;2024-01-30T00:44:51;21.73;;;16.33;;
55455;SDS011;63021;52.836;6.376;2024-01-30T00:47:17;21.95;;;15.55;;
55455;SDS011;63021;52.836;6.376;2024-01-30T00:49:42;23.92;;;16.27;;
55455;SDS011;63021;52.836;6.376;2024-01-30T00:52:08;27.42;;;15.80;;
55455;SDS011;63021;52.836;6.376;2024-01-30T00:54:33;20.98;;;15.90;;
55455;SDS011;63021;52.836;6.376;2024-01-30T00:56:58;23.90;;;18.77;;
55455;SDS011;63021;52.836;6.376;2024-01-30T00:59:24;24.60;;;17.70;;
55455;SDS011;63021;52.836;6.376;2024-01-30T01:01:50;23.77;;;17.95;;
55455;SDS011;63021;52.836;6.376;2024-01-30T01:04:15;24.50;;;16.27;;
55455;SDS011;63021;52.836;6.376;2024-01-30T01:06:42;22.33;;;15.98;;
55455;SDS011;63021;52.836;6.376;2024-01-30T01:09:10;23.42;;;15.43;;
55455;SDS011;63021;52.836;6.376;2024-01-30T01:11:36;29.25;;;17.58;;
55455;SDS011;63021;52.836;6.376;2024-01-30T01:14:03;19.95;;;15.68;;
55455;SDS011;63021;52.836;6.376;2024-01-30T01:16:28;26.02;;;16.52;;
55455;SDS011;63021;52.836;6.376;2024-01-30T01:18:55;19.85;;;15.60;;
55455;SDS011;63021;52.836;6.376;2024-01-30T01:21:20;31.83;;;16.90;;
55455;SDS011;63021;52.836;6.376;2024-01-30T01:23:46;25.13;;;16.77;;
55455;SDS011;63021;52.836;6.376;2024-01-30T01:26:11;26.98;;;18.45;;
55455;SDS011;63021;52.836;6.376;2024-01-30T01:28:36;21.45;;;16.77;;
55455;SDS011;63021;52.836;6.376;2024-01-30T01:31:02;23.98;;;17.42;;
55455;SDS011;63021;52.836;6.376;2024-01-30T01:33:33;23.27;;;17.08;;
55455;SDS011;63021;52.836;6.376;2024-01-30T01:35:59;23.88;;;15.98;;
55455;SDS011;63021;52.836;6.376;2024-01-30T01:38:27;22.63;;;17.33;;
55455;SDS011;63021;52.836;6.376;2024-01-30T01:40:53;22.52;;;16.58;;
55455;SDS011;63021;52.836;6.376;2024-01-30T01:43:18;25.92;;;15.82;;
55455;SDS011;63021;52.836;6.376;2024-01-30T01:45:44;20.52;;;15.15;;
55455;SDS011;63021;52.836;6.376;2024-01-30T01:48:10;22.55;;;16.02;;
55455;SDS011;63021;52.836;6.376;2024-01-30T01:50:37;23.98;;;17.20;;
55455;SDS011;63021;52.836;6.376;2024-01-30T01:53:03;23.83;;;15.95;;
55455;SDS011;63021;52.836;6.376;2024-01-30T01:55:32;31.02;;;15.80;;
55455;SDS011;63021;52.836;6.376;2024-01-30T01:57:58;19.20;;;14.75;;
55455;SDS011;63021;52.836;6.376;2024-01-30T02:00:23;23.73;;;16.42;;
55455;SDS011;63021;52.836;6.376;2024-01-30T02:02:49;23.73;;;14.95;;
55455;SDS011;63021;52.836;6.376;2024-01-30T02:05:15;20.02;;;16.35;;
55455;SDS011;63021;52.836;6.376;2024-01-30T02:07:41;20.63;;;14.90;;
55455;SDS011;63021;52.836;6.376;2024-01-30T02:10:07;19.48;;;14.82;;
55455;SDS011;63021;52.836;6.376;2024-01-30T02:12:34;21.73;;;15.10;;
55455;SDS011;63021;52.836;6.376;2024-01-30T02:15:00;25.98;;;15.68;;
55455;SDS011;63021;52.836;6.376;2024-01-30T02:17:25;21.85;;;14.38;;
55455;SDS011;63021;52.836;6.376;2024-01-30T02:19:51;21.25;;;15.38;;
55455;SDS011;63021;52.836;6.376;2024-01-30T02:22:17;22.65;;;14.93;;
55455;SDS011;63021;52.836;6.376;2024-01-30T02:24:44;20.45;;;14.68;;
55455;SDS011;63021;52.836;6.376;2024-01-30T02:27:09;18.90;;;14.73;;
55455;SDS011;63021;52.836;6.376;2024-01-30T02:29:35;20.75;;;15.30;;
55455;SDS011;63021;52.836;6.376;2024-01-30T02:32:00;21.90;;;14.00;;
55455;SDS011;63021;52.836;6.376;2024-01-30T02:34:26;21.30;;;14.63;;
55455;SDS011;63021;52.836;6.376;2024-01-30T02:36:51;17.67;;;14.38;;
55455;SDS011;63021;52.836;6.376;2024-01-30T02:39:16;21.92;;;14.75;;
55455;SDS011;63021;52.836;6.376;2024-01-30T02:41:42;18.42;;;14.35;;
55455;SDS011;63021;52.836;6.376;2024-01-30T02:44:07;19.05;;;14.95;;
55455;SDS011;63021;52.836;6.376;2024-01-30T02:46:33;21.27;;;14.95;;
55455;SDS011;63021;52.836;6.376;2024-01-30T02:48:58;18.67;;;14.32;;
55455;SDS011;63021;52.836;6.376;2024-01-30T02:51:23;21.83;;;14.95;;
55455;SDS011;63021;52.836;6.376;2024-01-30T02:53:49;19.00;;;15.13;;
55455;SDS011;63021;52.836;6.376;2024-01-30T02:56:14;19.60;;;14.88;;
55455;SDS011;63021;52.836;6.376;2024-01-30T02:58:40;20.05;;;14.82;;
55455;SDS011;63021;52.836;6.376;2024-01-30T03:01:06;20.42;;;15.27;;
55455;SDS011;63021;52.836;6.376;2024-01-30T03:03:31;19.30;;;14.48;;
55455;SDS011;63021;52.836;6.376;2024-01-30T03:05:57;20.13;;;14.88;;
55455;SDS011;63021;52.836;6.376;2024-01-30T03:08:22;19.67;;;14.23;;
55455;SDS011;63021;52.836;6.376;2024-01-30T03:10:48;19.63;;;14.15;;
55455;SDS011;63021;52.836;6.376;2024-01-30T03:13:13;21.38;;;15.32;;
55455;SDS011;63021;52.836;6.376;2024-01-30T03:15:39;19.63;;;13.95;;
55455;SDS011;63021;52.836;6.376;2024-01-30T03:18:04;21.30;;;15.13;;
55455;SDS011;63021;52.836;6.376;2024-01-30T03:20:30;17.95;;;14.48;;
55455;SDS011;63021;52.836;6.376;2024-01-30T03:22:56;21.60;;;14.60;;
55455;SDS011;63021;52.836;6.376;2024-01-30T03:25:22;21.50;;;14.48;;
55455;SDS011;63021;52.836;6.376;2024-01-30T03:27:47;18.63;;;14.50;;
55455;SDS011;63021;52.836;6.376;2024-01-30T03:30:13;20.35;;;14.43;;
55455;SDS011;63021;52.836;6.376;2024-01-30T03:32:38;19.60;;;14.55;;
55455;SDS011;63021;52.836;6.376;2024-01-30T03:35:03;18.88;;;13.93;;
55455;SDS011;63021;52.836;6.376;2024-01-30T03:37:29;22.10;;;15.38;;
55455;SDS011;63021;52.836;6.376;2024-01-30T03:39:55;22.17;;;15.10;;
55455;SDS011;63021;52.836;6.376;2024-01-30T03:42:20;17.75;;;14.50;;
55455;SDS011;63021;52.836;6.376;2024-01-30T03:44:47;21.70;;;15.02;;
55455;SDS011;63021;52.836;6.376;2024-01-30T03:47:12;21.77;;;14.52;;
55455;SDS011;63021;52.836;6.376;2024-01-30T03:49:38;19.45;;;13.80;;
55455;SDS011;63021;52.836;6.376;2024-01-30T03:52:03;17.00;;;13.57;;
55455;SDS011;63021;52.836;6.376;2024-01-30T03:54:29;20.38;;;14.57;;
55455;SDS011;63021;52.836;6.376;2024-01-30T03:56:54;18.08;;;12.98;;
55455;SDS011;63021;52.836;6.376;2024-01-30T03:59:19;21.10;;;13.00;;
55455;SDS011;63021;52.836;6.376;2024-01-30T04:01:49;16.90;;;13.27;;
55455;SDS011;63021;52.836;6.376;2024-01-30T04:04:17;20.73;;;14.32;;
55455;SDS011;63021;52.836;6.376;2024-01-30T04:06:43;17.27;;;13.88;;
55455;SDS011;63021;52.836;6.376;2024-01-30T04:09:09;16.38;;;13.18;;
55455;SDS011;63021;52.836;6.376;2024-01-30T04:11:34;22.77;;;14.07;;
55455;SDS011;63021;52.836;6.376;2024-01-30T04:14:00;20.60;;;14.60;;
55455;SDS011;63021;52.836;6.376;2024-01-30T04:16:25;18.83;;;14.25;;
55455;SDS011;63021;52.836;6.376;2024-01-30T04:18:51;19.50;;;14.82;;
55455;SDS011;63021;52.836;6.376;2024-01-30T04:21:17;20.80;;;14.75;;
55455;SDS011;63021;52.836;6.376;2024-01-30T04:23:43;19.25;;;14.35;;
55455;SDS011;63021;52.836;6.376;2024-01-30T04:26:08;16.38;;;13.68;;
55455;SDS011;63021;52.836;6.376;2024-01-30T04:28:33;19.05;;;14.07;;
55455;SDS011;63021;52.836;6.376;2024-01-30T04:30:59;16.40;;;13.82;;
55455;SDS011;63021;52.836;6.376;2024-01-30T04:33:24;17.48;;;13.75;;
55455;SDS011;63021;52.836;6.376;2024-01-30T04:35:50;17.52;;;13.48;;
55455;SDS011;63021;52.836;6.376;2024-01-30T04:38:15;16.90;;;13.52;;
55455;SDS011;63021;52.836;6.376;2024-01-30T04:40:40;19.73;;;13.65;;
55455;SDS011;63021;52.836;6.376;2024-01-30T04:43:06;16.20;;;12.57;;
55455;SDS011;63021;52.836;6.376;2024-01-30T04:45:31;19.83;;;12.32;;
55455;SDS011;63021;52.836;6.376;2024-01-30T04:47:57;20.13;;;13.90;;
55455;SDS011;63021;52.836;6.376;2024-01-30T04:50:22;19.27;;;13.32;;
55455;SDS011;63021;52.836;6.376;2024-01-30T04:52:48;18.98;;;12.88;;
55455;SDS011;63021;52.836;6.376;2024-01-30T04:55:14;20.00;;;13.27;;
55455;SDS011;63021;52.836;6.376;2024-01-30T04:57:39;18.75;;;13.70;;
55455;SDS011;63021;52.836;6.376;2024-01-30T05:00:05;18.23;;;13.13;;
55455;SDS011;63021;52.836;6.376;2024-01-30T05:02:31;22.23;;;14.88;;
55455;SDS011;63021;52.836;6.376;2024-01-30T05:04:56;19.48;;;13.10;;
55455;SDS011;63021;52.836;6.376;2024-01-30T05:07:23;23.98;;;15.02;;
55455;SDS011;63021;52.836;6.376;2024-01-30T05:09:49;20.17;;;12.82;;
55455;SDS011;63021;52.836;6.376;2024-01-30T05:12:15;17.23;;;13.15;;
55455;SDS011;63021;52.836;6.376;2024-01-30T05:14:40;18.05;;;13.18;;
55455;SDS011;63021;52.836;6.376;2024-01-30T05:17:06;17.10;;;13.20;;
55455;SDS011;63021;52.836;6.376;2024-01-30T05:19:32;16.23;;;13.05;;
55455;SDS011;63021;52.836;6.376;2024-01-30T05:21:58;17.40;;;12.88;;
55455;SDS011;63021;52.836;6.376;2024-01-30T05:24:23;18.55;;;12.88;;
55455;SDS011;63021;52.836;6.376;2024-01-30T05:26:49;18.67;;;13.32;;
55455;SDS011;63021;52.836;6.376;2024-01-30T05:29:16;19.45;;;12.23;;
55455;SDS011;63021;52.836;6.376;2024-01-30T05:31:41;18.75;;;12.63;;
55455;SDS011;63021;52.836;6.376;2024-01-30T05:34:07;18.38;;;12.50;;
55455;SDS011;63021;52.836;6.376;2024-01-30T05:36:34;15.75;;;13.05;;
55455;SDS011;63021;52.836;6.376;2024-01-30T05:39:00;19.35;;;13.32;;
55455;SDS011;63021;52.836;6.376;2024-01-30T05:41:25;19.48;;;13.07;;
55455;SDS011;63021;52.836;6.376;2024-01-30T05:43:54;15.63;;;12.25;;
55455;SDS011;63021;52.836;6.376;2024-01-30T05:46:19;17.33;;;12.25;;
55455;SDS011;63021;52.836;6.376;2024-01-30T05:48:45;18.58;;;12.93;;
55455;SDS011;63021;52.836;6.376;2024-01-30T05:51:10;18.55;;;13.10;;
55455;SDS011;63021;52.836;6.376;2024-01-30T05:53:35;16.38;;;12.30;;
55455;SDS011;63021;52.836;6.376;2024-01-30T05:56:01;20.27;;;13.75;;
55455;SDS011;63021;52.836;6.376;2024-01-30T05:58:30;17.88;;;11.70;;
55455;SDS011;63021;52.836;6.376;2024-01-30T06:00:58;18.23;;;12.05;;
55455;SDS011;63021;52.836;6.376;2024-01-30T06:03:23;18.40;;;12.27;;
55455;SDS011;63021;52.836;6.376;2024-01-30T06:05:49;14.18;;;11.63;;
55455;SDS011;63021;52.836;6.376;2024-01-30T06:08:15;15.88;;;12.18;;
55455;SDS011;63021;52.836;6.376;2024-01-30T06:10:40;15.80;;;12.32;;
55455;SDS011;63021;52.836;6.376;2024-01-30T06:13:06;20.85;;;13.82;;
55455;SDS011;63021;52.836;6.376;2024-01-30T06:15:31;21.88;;;13.15;;
55455;SDS011;63021;52.836;6.376;2024-01-30T06:17:57;16.52;;;12.30;;
55455;SDS011;63021;52.836;6.376;2024-01-30T06:20:23;20.33;;;13.50;;
55455;SDS011;63021;52.836;6.376;2024-01-30T06:22:49;19.85;;;13.35;;
55455;SDS011;63021;52.836;6.376;2024-01-30T06:25:14;14.93;;;11.98;;
55455;SDS011;63021;52.836;6.376;2024-01-30T06:27:39;18.00;;;13.45;;
55455;SDS011;63021;52.836;6.376;2024-01-30T06:30:05;19.15;;;12.63;;
55455;SDS011;63021;52.836;6.376;2024-01-30T06:32:31;20.10;;;13.30;;
55455;SDS011;63021;52.836;6.376;2024-01-30T06:34:59;18.85;;;13.63;;
55455;SDS011;63021;52.836;6.376;2024-01-30T06:37:25;18.48;;;12.68;;
55455;SDS011;63021;52.836;6.376;2024-01-30T06:39:50;18.33;;;12.43;;
55455;SDS011;63021;52.836;6.376;2024-01-30T06:42:17;18.45;;;13.48;;
55455;SDS011;63021;52.836;6.376;2024-01-30T06:44:42;20.15;;;11.88;;
55455;SDS011;63021;52.836;6.376;2024-01-30T06:47:08;17.10;;;11.73;;
55455;SDS011;63021;52.836;6.376;2024-01-30T06:49:33;18.33;;;13.23;;
55455;SDS011;63021;52.836;6.376;2024-01-30T06:51:58;15.25;;;11.48;;
55455;SDS011;63021;52.836;6.376;2024-01-30T06:54:24;18.70;;;12.90;;
55455;SDS011;63021;52.836;6.376;2024-01-30T06:56:49;16.17;;;12.23;;
55455;SDS011;63021;52.836;6.376;2024-01-30T06:59:15;16.42;;;11.45;;
55455;SDS011;63021;52.836;6.376;2024-01-30T07:01:40;16.38;;;13.48;;
55455;SDS011;63021;52.836;6.376;2024-01-30T07:04:05;17.48;;;11.68;;
55455;SDS011;63021;52.836;6.376;2024-01-30T07:06:31;18.35;;;12.38;;
55455;SDS011;63021;52.836;6.376;2024-01-30T07:08:56;17.80;;;13.50;;
55455;SDS011;63021;52.836;6.376;2024-01-30T07:11:22;16.15;;;12.88;;
55455;SDS011;63021;52.836;6.376;2024-01-30T07:13:48;18.92;;;13.27;;
55455;SDS011;63021;52.836;6.376;2024-01-30T07:16:15;17.40;;;12.77;;
55455;SDS011;63021;52.836;6.376;2024-01-30T07:18:40;19.15;;;12.52;;
55455;SDS011;63021;52.836;6.376;2024-01-30T07:21:06;19.73;;;12.27;;
55455;SDS011;63021;52.836;6.376;2024-01-30T07:23:32;19.60;;;13.10;;
55455;SDS011;63021;52.836;6.376;2024-01-30T07:25:59;16.95;;;12.25;;
55455;SDS011;63021;52.836;6.376;2024-01-30T07:28:24;18.25;;;12.82;;
55455;SDS011;63021;52.836;6.376;2024-01-30T07:30:50;16.10;;;12.40;;
55455;SDS011;63021;52.836;6.376;2024-01-30T07:33:15;14.13;;;11.30;;
55455;SDS011;63021;52.836;6.376;2024-01-30T07:35:41;19.20;;;12.48;;
55455;SDS011;63021;52.836;6.376;2024-01-30T07:38:06;16.10;;;11.80;;
55455;SDS011;63021;52.836;6.376;2024-01-30T07:40:31;16.05;;;11.73;;
55455;SDS011;63021;52.836;6.376;2024-01-30T07:42:58;15.85;;;11.73;;
55455;SDS011;63021;52.836;6.376;2024-01-30T07:45:23;17.02;;;12.90;;
55455;SDS011;63021;52.836;6.376;2024-01-30T07:47:50;16.42;;;11.60;;
55455;SDS011;63021;52.836;6.376;2024-01-30T07:50:16;19.15;;;12.43;;
55455;SDS011;63021;52.836;6.376;2024-01-30T07:52:45;16.02;;;12.07;;
55455;SDS011;63021;52.836;6.376;2024-01-30T07:55:10;16.35;;;11.52;;
55455;SDS011;63021;52.836;6.376;2024-01-30T07:57:38;14.00;;;11.80;;
55455;SDS011;63021;52.836;6.376;2024-01-30T08:00:04;18.17;;;11.90;;
55455;SDS011;63021;52.836;6.376;2024-01-30T08:02:32;21.27;;;12.23;;
55455;SDS011;63021;52.836;6.376;2024-01-30T08:04:57;16.10;;;12.02;;
55455;SDS011;63021;52.836;6.376;2024-01-30T08:07:22;20.08;;;12.70;;
55455;SDS011;63021;52.836;6.376;2024-01-30T08:09:48;15.80;;;12.15;;
55455;SDS011;63021;52.836;6.376;2024-01-30T08:12:13;19.60;;;12.18;;
55455;SDS011;63021;52.836;6.376;2024-01-30T08:14:39;14.73;;;11.57;;
55455;SDS011;63021;52.836;6.376;2024-01-30T08:17:06;16.77;;;11.80;;
55455;SDS011;63021;52.836;6.376;2024-01-30T08:19:32;17.02;;;10.88;;
55455;SDS011;63021;52.836;6.376;2024-01-30T08:21:58;16.05;;;11.38;;
55455;SDS011;63021;52.836;6.376;2024-01-30T08:24:23;15.35;;;10.88;;
55455;SDS011;63021;52.836;6.376;2024-01-30T08:26:49;12.82;;;10.77;;
55455;SDS011;63021;52.836;6.376;2024-01-30T08:29:14;16.10;;;11.73;;
55455;SDS011;63021;52.836;6.376;2024-01-30T08:31:39;16.10;;;10.82;;
55455;SDS011;63021;52.836;6.376;2024-01-30T08:34:05;16.35;;;10.90;;
55455;SDS011;63021;52.836;6.376;2024-01-30T08:36:30;17.90;;;10.70;;
55455;SDS011;63021;52.836;6.376;2024-01-30T08:38:55;15.48;;;11.00;;
55455;SDS011;63021;52.836;6.376;2024-01-30T08:41:21;15.15;;;11.18;;
55455;SDS011;63021;52.836;6.376;2024-01-30T08:43:46;16.63;;;11.85;;
55455;SDS011;63021;52.836;6.376;2024-01-30T08:46:11;13.40;;;11.02;;
55455;SDS011;63021;52.836;6.376;2024-01-30T08:48:37;14.80;;;11.05;;
55455;SDS011;63021;52.836;6.376;2024-01-30T08:51:03;18.35;;;12.10;;
55455;SDS011;63021;52.836;6.376;2024-01-30T08:53:28;13.32;;;11.27;;
55455;SDS011;63021;52.836;6.376;2024-01-30T08:55:54;16.05;;;11.52;;
55455;SDS011;63021;52.836;6.376;2024-01-30T08:58:22;18.02;;;11.52;;
55455;SDS011;63021;52.836;6.376;2024-01-30T09:00:47;19.13;;;11.60;;
55455;SDS011;63021;52.836;6.376;2024-01-30T09:03:30;14.70;;;11.27;;
55455;SDS011;63021;52.836;6.376;2024-01-30T09:06:14;15.60;;;11.55;;
55455;SDS011;63021;52.836;6.376;2024-01-30T09:08:40;14.13;;;10.55;;
55455;SDS011;63021;52.836;6.376;2024-01-30T09:11:11;17.75;;;10.82;;
55455;SDS011;63021;52.836;6.376;2024-01-30T09:13:37;18.50;;;10.48;;
55455;SDS011;63021;52.836;6.376;2024-01-30T09:16:03;18.02;;;9.95;;
55455;SDS011;63021;52.836;6.376;2024-01-30T09:18:29;16.20;;;10.85;;
55455;SDS011;63021;52.836;6.376;2024-01-30T09:20:54;16.02;;;11.13;;
55455;SDS011;63021;52.836;6.376;2024-01-30T09:23:20;20.27;;;10.80;;
55455;SDS011;63021;52.836;6.376;2024-01-30T09:25:45;16.63;;;10.40;;
55455;SDS011;63021;52.836;6.376;2024-01-30T09:28:10;17.65;;;10.45;;
55455;SDS011;63021;52.836;6.376;2024-01-30T09:30:36;15.70;;;10.63;;
55455;SDS011;63021;52.836;6.376;2024-01-30T09:33:02;13.48;;;9.73;;
55455;SDS011;63021;52.836;6.376;2024-01-30T09:35:27;20.40;;;10.70;;
55455;SDS011;63021;52.836;6.376;2024-01-30T09:37:52;17.70;;;9.93;;
55455;SDS011;63021;52.836;6.376;2024-01-30T09:40:18;13.93;;;10.43;;
55455;SDS011;63021;52.836;6.376;2024-01-30T09:42:48;15.20;;;9.93;;
55455;SDS011;63021;52.836;6.376;2024-01-30T09:45:15;16.15;;;10.95;;
55455;SDS011;63021;52.836;6.376;2024-01-30T09:47:44;13.38;;;9.45;;
55455;SDS011;63021;52.836;6.376;2024-01-30T09:50:11;15.05;;;10.20;;
55455;SDS011;63021;52.836;6.376;2024-01-30T09:52:38;19.63;;;11.30;;
55455;SDS011;63021;52.836;6.376;2024-01-30T09:55:04;14.50;;;10.55;;
55455;SDS011;63021;52.836;6.376;2024-01-30T09:57:30;13.98;;;9.95;;
55455;SDS011;63021;52.836;6.376;2024-01-30T09:59:56;19.70;;;10.65;;
55455;SDS011;63021;52.836;6.376;2024-01-30T10:02:22;19.30;;;11.02;;
55455;SDS011;63021;52.836;6.376;2024-01-30T10:07:27;16.70;;;10.40;;
55455;SDS011;63021;52.836;6.376;2024-01-30T10:09:53;15.63;;;10.82;;
55455;SDS011;63021;52.836;6.376;2024-01-30T10:12:19;16.00;;;10.07;;
55455;SDS011;63021;52.836;6.376;2024-01-30T10:14:47;20.02;;;10.95;;
55455;SDS011;63021;52.836;6.376;2024-01-30T10:17:16;14.50;;;9.70;;
55455;SDS011;63021;52.836;6.376;2024-01-30T10:19:41;18.40;;;11.32;;
55455;SDS011;63021;52.836;6.376;2024-01-30T10:22:07;19.40;;;11.45;;
55455;SDS011;63021;52.836;6.376;2024-01-30T10:24:34;17.00;;;11.15;;
55455;SDS011;63021;52.836;6.376;2024-01-30T10:27:00;20.73;;;11.15;;
55455;SDS011;63021;52.836;6.376;2024-01-30T10:29:26;15.98;;;10.30;;
55455;SDS011;63021;52.836;6.376;2024-01-30T10:32:01;17.55;;;11.02;;
55455;SDS011;63021;52.836;6.376;2024-01-30T10:34:28;18.85;;;12.02;;
55455;SDS011;63021;52.836;6.376;2024-01-30T10:39:31;18.25;;;11.98;;
55455;SDS011;63021;52.836;6.376;2024-01-30T10:42:03;17.90;;;11.25;;
55455;SDS011;63021;52.836;6.376;2024-01-30T10:44:34;15.20;;;10.98;;
55455;SDS011;63021;52.836;6.376;2024-01-30T10:47:03;15.82;;;11.65;;
55455;SDS011;63021;52.836;6.376;2024-01-30T10:49:35;16.80;;;10.80;;
55455;SDS011;63021;52.836;6.376;2024-01-30T10:52:01;19.60;;;12.15;;
55455;SDS011;63021;52.836;6.376;2024-01-30T10:54:30;20.55;;;14.20;;
55455;SDS011;63021;52.836;6.376;2024-01-30T10:56:58;17.15;;;11.23;;
55455;SDS011;63021;52.836;6.376;2024-01-30T10:59:26;17.60;;;10.77;;
55455;SDS011;63021;52.836;6.376;2024-01-30T11:01:53;14.93;;;11.20;;
55455;SDS011;63021;52.836;6.376;2024-01-30T11:04:18;19.67;;;11.50;;
55455;SDS011;63021;52.836;6.376;2024-01-30T11:06:44;18.67;;;12.07;;
55455;SDS011;63021;52.836;6.376;2024-01-30T11:09:12;18.42;;;11.35;;
55455;SDS011;63021;52.836;6.376;2024-01-30T11:14:15;26.70;;;13.48;;
55455;SDS011;63021;52.836;6.376;2024-01-30T11:16:41;24.73;;;13.10;;
55455;SDS011;63021;52.836;6.376;2024-01-30T11:19:10;18.90;;;13.43;;
55455;SDS011;63021;52.836;6.376;2024-01-30T11:21:41;21.27;;;12.95;;
55455;SDS011;63021;52.836;6.376;2024-01-30T11:24:07;22.30;;;12.57;;
55455;SDS011;63021;52.836;6.376;2024-01-30T11:26:33;24.40;;;14.52;;
55455;SDS011;63021;52.836;6.376;2024-01-30T11:28:59;26.98;;;14.00;;
55455;SDS011;63021;52.836;6.376;2024-01-30T11:31:28;27.70;;;13.88;;
55455;SDS011;63021;52.836;6.376;2024-01-30T11:33:54;19.85;;;13.25;;
55455;SDS011;63021;52.836;6.376;2024-01-30T11:36:21;19.08;;;13.07;;
55455;SDS011;63021;52.836;6.376;2024-01-30T11:38:50;26.25;;;14.35;;
55455;SDS011;63021;52.836;6.376;2024-01-30T11:41:16;17.90;;;12.90;;
55455;SDS011;63021;52.836;6.376;2024-01-30T11:43:42;24.35;;;13.70;;
55455;SDS011;63021;52.836;6.376;2024-01-30T11:46:08;16.70;;;12.65;;
55455;SDS011;63021;52.836;6.376;2024-01-30T11:48:34;17.77;;;13.10;;
55455;SDS011;63021;52.836;6.376;2024-01-30T11:51:00;19.63;;;13.00;;
55455;SDS011;63021;52.836;6.376;2024-01-30T11:53:25;19.77;;;13.98;;
55455;SDS011;63021;52.836;6.376;2024-01-30T11:55:52;21.75;;;12.88;;
55455;SDS011;63021;52.836;6.376;2024-01-30T11:58:17;24.63;;;13.75;;
55455;SDS011;63021;52.836;6.376;2024-01-30T12:00:52;22.92;;;13.40;;
55455;SDS011;63021;52.836;6.376;2024-01-30T12:03:18;26.20;;;10.80;;
55455;SDS011;63021;52.836;6.376;2024-01-30T12:05:43;18.02;;;7.97;;
55455;SDS011;63021;52.836;6.376;2024-01-30T12:08:14;21.95;;;6.90;;
55455;SDS011;63021;52.836;6.376;2024-01-30T12:10:40;19.40;;;7.28;;
55455;SDS011;63021;52.836;6.376;2024-01-30T12:13:06;15.55;;;6.53;;
55455;SDS011;63021;52.836;6.376;2024-01-30T12:15:31;13.27;;;6.90;;
55455;SDS011;63021;52.836;6.376;2024-01-30T12:18:06;11.23;;;5.45;;
55455;SDS011;63021;52.836;6.376;2024-01-30T12:20:32;9.02;;;4.60;;
55455;SDS011;63021;52.836;6.376;2024-01-30T12:22:58;11.85;;;4.72;;
55455;SDS011;63021;52.836;6.376;2024-01-30T12:25:23;10.30;;;4.45;;
55455;SDS011;63021;52.836;6.376;2024-01-30T12:27:49;6.70;;;3.40;;
55455;SDS011;63021;52.836;6.376;2024-01-30T12:30:16;8.60;;;3.72;;
55455;SDS011;63021;52.836;6.376;2024-01-30T12:32:44;7.55;;;3.05;;
55455;SDS011;63021;52.836;6.376;2024-01-30T12:35:15;4.32;;;2.42;;
55455;SDS011;63021;52.836;6.376;2024-01-30T12:37:45;6.75;;;2.65;;
55455;SDS011;63021;52.836;6.376;2024-01-30T12:40:12;5.95;;;3.42;;
55455;SDS011;63021;52.836;6.376;2024-01-30T12:42:42;3.17;;;2.00;;
55455;SDS011;63021;52.836;6.376;2024-01-30T12:45:11;4.75;;;2.17;;
55455;SDS011;63021;52.836;6.376;2024-01-30T12:47:36;4.47;;;1.70;;
55455;SDS011;63021;52.836;6.376;2024-01-30T12:50:02;2.65;;;1.70;;
55455;SDS011;63021;52.836;6.376;2024-01-30T12:52:28;3.13;;;1.65;;
55455;SDS011;63021;52.836;6.376;2024-01-30T12:54:54;6.63;;;2.00;;
55455;SDS011;63021;52.836;6.376;2024-01-30T12:57:19;3.30;;;2.00;;
55455;SDS011;63021;52.836;6.376;2024-01-30T12:59:45;3.22;;;2.13;;
55455;SDS011;63021;52.836;6.376;2024-01-30T13:02:12;4.13;;;1.90;;
55455;SDS011;63021;52.836;6.376;2024-01-30T13:04:38;3.33;;;2.20;;
55455;SDS011;63021;52.836;6.376;2024-01-30T13:07:03;3.13;;;2.45;;
55455;SDS011;63021;52.836;6.376;2024-01-30T13:09:29;4.90;;;2.10;;
55455;SDS011;63021;52.836;6.376;2024-01-30T13:11:55;6.25;;;2.03;;
55455;SDS011;63021;52.836;6.376;2024-01-30T13:14:21;3.10;;;1.55;;
55455;SDS011;63021;52.836;6.376;2024-01-30T13:16:46;4.03;;;1.77;;
55455;SDS011;63021;52.836;6.376;2024-01-30T13:19:12;3.15;;;1.73;;
55455;SDS011;63021;52.836;6.376;2024-01-30T13:21:37;3.83;;;1.83;;
55455;SDS011;63021;52.836;6.376;2024-01-30T13:24:03;3.75;;;1.88;;
55455;SDS011;63021;52.836;6.376;2024-01-30T13:26:28;4.25;;;1.80;;
55455;SDS011;63021;52.836;6.376;2024-01-30T13:28:55;3.78;;;1.50;;
55455;SDS011;63021;52.836;6.376;2024-01-30T13:31:21;3.80;;;1.77;;
55455;SDS011;63021;52.836;6.376;2024-01-30T13:33:46;3.67;;;1.98;;
55455;SDS011;63021;52.836;6.376;2024-01-30T13:36:13;5.30;;;2.10;;
55455;SDS011;63021;52.836;6.376;2024-01-30T13:38:39;4.75;;;2.17;;
55455;SDS011;63021;52.836;6.376;2024-01-30T13:41:05;6.30;;;3.22;;
55455;SDS011;63021;52.836;6.376;2024-01-30T13:43:31;6.20;;;3.97;;
55455;SDS011;63021;52.836;6.376;2024-01-30T13:45:56;5.97;;;3.65;;
55455;SDS011;63021;52.836;6.376;2024-01-30T13:48:22;6.60;;;3.75;;
55455;SDS011;63021;52.836;6.376;2024-01-30T13:50:48;9.73;;;3.58;;
55455;SDS011;63021;52.836;6.376;2024-01-30T13:53:13;8.40;;;3.42;;
55455;SDS011;63021;52.836;6.376;2024-01-30T13:55:39;7.40;;;3.90;;
55455;SDS011;63021;52.836;6.376;2024-01-30T13:58:05;7.28;;;2.88;;
55455;SDS011;63021;52.836;6.376;2024-01-30T14:00:33;4.47;;;2.15;;
55455;SDS011;63021;52.836;6.376;2024-01-30T14:02:58;5.90;;;2.20;;
55455;SDS011;63021;52.836;6.376;2024-01-30T14:05:24;5.43;;;2.28;;
55455;SDS011;63021;52.836;6.376;2024-01-30T14:07:50;2.38;;;1.88;;
55455;SDS011;63021;52.836;6.376;2024-01-30T14:10:16;3.30;;;2.13;;
55455;SDS011;63021;52.836;6.376;2024-01-30T14:12:42;8.80;;;2.45;;
55455;SDS011;63021;52.836;6.376;2024-01-30T14:15:09;4.00;;;2.03;;
55455;SDS011;63021;52.836;6.376;2024-01-30T14:17:36;2.25;;;2.05;;
55455;SDS011;63021;52.836;6.376;2024-01-30T14:20:04;4.38;;;2.05;;
55455;SDS011;63021;52.836;6.376;2024-01-30T14:22:31;4.25;;;2.00;;
55455;SDS011;63021;52.836;6.376;2024-01-30T14:24:58;5.13;;;1.83;;
55455;SDS011;63021;52.836;6.376;2024-01-30T14:27:24;4.90;;;2.28;;